createdAt,value
2022-09-15T00:02:08.495Z,5.70
2022-09-15T00:05:13.033Z,6.80
2022-09-15T00:08:15.903Z,6.23
2022-09-15T00:11:21.223Z,4.72
2022-09-15T00:14:25.497Z,6.90
2022-09-15T00:17:29.297Z,6.75
2022-09-15T00:20:31.868Z,7.25
2022-09-15T00:23:34.840Z,5.10
2022-09-15T00:26:37.655Z,5.45
2022-09-15T00:29:41.682Z,6.93
2022-09-15T00:32:44.214Z,6.88
2022-09-15T00:35:49.445Z,7.20
2022-09-15T00:38:52.238Z,6.27
2022-09-15T00:41:54.984Z,6.28
2022-09-15T00:45:01.874Z,5.10
2022-09-15T00:48:05.537Z,5.82
2022-09-15T00:51:09.845Z,5.93
2022-09-15T00:54:17.240Z,6.13
2022-09-15T00:57:24.169Z,6.20
2022-09-15T01:00:29.370Z,5.82
2022-09-15T01:03:34.280Z,7.13
2022-09-15T01:06:40.081Z,6.10
2022-09-15T01:09:49.451Z,6.37
2022-09-15T01:12:53.405Z,5.97
2022-09-15T01:16:14.005Z,6.13
2022-09-15T01:19:40.647Z,6.78
2022-09-15T01:22:55.269Z,5.63
2022-09-15T01:26:37.834Z,6.63
2022-09-15T01:29:53.262Z,6.28
2022-09-15T01:33:09.862Z,5.82
2022-09-15T01:36:18.316Z,6.72
2022-09-15T01:39:26.257Z,6.47
2022-09-15T01:42:30.560Z,4.97
2022-09-15T01:45:35.780Z,5.40
2022-09-15T01:48:39.463Z,5.25
2022-09-15T01:51:44.890Z,6.15
2022-09-15T01:54:51.393Z,5.82
2022-09-15T01:57:54.125Z,6.80
2022-09-15T02:01:01.717Z,9.20
2022-09-15T02:04:09.842Z,7.07
2022-09-15T02:07:21.535Z,5.82
2022-09-15T02:10:32.799Z,6.05
2022-09-15T02:13:45.162Z,6.40
2022-09-15T02:16:53.719Z,5.93
2022-09-15T02:20:04.189Z,5.68
2022-09-15T02:23:10.757Z,6.20
2022-09-15T02:26:18.288Z,6.43
2022-09-15T02:29:22.943Z,6.63
2022-09-15T02:32:29.653Z,5.38
2022-09-15T02:35:35.935Z,5.50
2022-09-15T02:38:44.514Z,5.32
2022-09-15T02:41:47.304Z,6.95
2022-09-15T02:44:50.013Z,6.37
2022-09-15T02:47:53.943Z,6.80
2022-09-15T02:50:56.610Z,7.03
2022-09-15T02:53:59.215Z,5.72
2022-09-15T02:57:01.921Z,5.97
2022-09-15T03:00:16.256Z,6.30
2022-09-15T03:03:21.954Z,7.57
2022-09-15T03:06:25.622Z,5.85
2022-09-15T03:09:28.225Z,7.07
2022-09-15T03:12:30.810Z,6.07
2022-09-15T03:15:33.373Z,6.77
2022-09-15T03:18:37.677Z,7.43
2022-09-15T03:21:40.363Z,6.10
2022-09-15T03:24:43.190Z,5.47
2022-09-15T03:27:46.137Z,7.38
2022-09-15T03:30:48.821Z,6.40
2022-09-15T03:33:56.295Z,5.95
2022-09-15T03:36:58.867Z,5.90
2022-09-15T03:40:01.622Z,7.00
2022-09-15T03:43:04.263Z,6.43
2022-09-15T03:46:09.062Z,7.00
2022-09-15T03:49:13.442Z,7.68
2022-09-15T03:52:16.122Z,6.80
2022-09-15T03:55:18.807Z,6.45
2022-09-15T03:58:21.397Z,5.68
2022-09-15T04:01:24.758Z,6.63
2022-09-15T04:04:28.823Z,6.65
2022-09-15T04:07:31.506Z,5.93
2022-09-15T04:10:34.991Z,7.43
2022-09-15T04:13:38.779Z,5.13
2022-09-15T04:16:41.415Z,7.93
2022-09-15T04:19:45.712Z,6.63
2022-09-15T04:22:48.422Z,6.90
2022-09-15T04:25:57.959Z,7.65
2022-09-15T04:29:04.467Z,7.10
2022-09-15T04:32:07.869Z,9.30
2022-09-15T04:35:12.244Z,7.65
2022-09-15T04:38:14.842Z,7.18
2022-09-15T04:41:18.643Z,7.18
2022-09-15T04:44:21.615Z,6.27
2022-09-15T04:47:24.171Z,9.03
2022-09-15T04:50:28.294Z,6.10
2022-09-15T04:53:31.126Z,6.80
2022-09-15T04:56:34.013Z,6.53
2022-09-15T04:59:36.849Z,7.47
2022-09-15T05:02:39.549Z,6.30
2022-09-15T05:05:43.469Z,6.03
2022-09-15T05:08:48.380Z,6.65
2022-09-15T05:11:50.930Z,8.93
2022-09-15T05:14:53.631Z,7.97
2022-09-15T05:17:56.198Z,5.93
2022-09-15T05:21:01.276Z,10.57
2022-09-15T05:24:03.870Z,13.85
2022-09-15T05:27:06.918Z,9.18
2022-09-15T05:30:35.972Z,13.77
2022-09-15T05:33:33.541Z,8.60
2022-09-15T05:36:37.599Z,7.32
2022-09-15T05:39:41.031Z,8.25
2022-09-15T05:42:43.737Z,8.52
2022-09-15T05:45:54.971Z,8.37
2022-09-15T05:48:59.897Z,8.53
2022-09-15T05:52:04.302Z,9.85
2022-09-15T05:55:07.336Z,8.50
2022-09-15T05:58:10.016Z,9.45
2022-09-15T06:01:15.594Z,9.13
2022-09-15T06:04:18.206Z,7.80
2022-09-15T06:07:22.264Z,8.80
2022-09-15T06:10:25.220Z,8.98
2022-09-15T06:13:27.906Z,9.43
2022-09-15T06:16:33.865Z,8.87
2022-09-15T06:19:36.687Z,10.30
2022-09-15T06:22:40.915Z,7.93
2022-09-15T06:25:43.649Z,7.72
2022-09-15T06:28:50.147Z,6.25
2022-09-15T06:31:52.869Z,7.73
2022-09-15T06:34:55.464Z,6.50
2022-09-15T06:37:59.515Z,6.85
2022-09-15T06:41:02.081Z,6.40
2022-09-15T06:44:04.783Z,7.97
2022-09-15T06:47:07.565Z,8.53
2022-09-15T06:50:10.692Z,6.97
2022-09-15T06:53:15.156Z,7.93
2022-09-15T06:56:19.999Z,8.35
2022-09-15T06:59:24.033Z,7.93
2022-09-15T07:02:26.757Z,6.50
2022-09-15T07:05:30.666Z,4.70
2022-09-15T07:08:34.841Z,5.72
2022-09-15T07:11:37.715Z,7.78
2022-09-15T07:14:40.259Z,6.53
2022-09-15T07:17:42.958Z,5.03
2022-09-15T07:20:45.575Z,6.70
2022-09-15T07:23:50.094Z,6.93
2022-09-15T07:26:52.990Z,7.10
2022-09-15T07:29:55.646Z,8.00
2022-09-15T07:32:58.202Z,7.93
2022-09-15T07:36:01.980Z,6.03
2022-09-15T07:39:07.017Z,4.95
2022-09-15T07:42:09.736Z,7.10
2022-09-15T07:45:12.832Z,6.63
2022-09-15T07:48:15.526Z,5.93
2022-09-15T07:51:18.632Z,6.50
2022-09-15T07:54:23.138Z,5.78
2022-09-15T07:57:26.807Z,6.47
2022-09-15T08:00:29.616Z,5.32
2022-09-15T08:03:32.392Z,6.17
2022-09-15T08:06:36.361Z,4.80
2022-09-15T08:09:41.515Z,5.43
2022-09-15T08:12:44.373Z,7.03
2022-09-15T08:15:47.142Z,5.85
2022-09-15T08:18:51.213Z,8.03
2022-09-15T08:21:53.849Z,6.17
2022-09-15T08:24:57.888Z,4.88
2022-09-15T08:28:00.550Z,5.80
2022-09-15T08:31:05.476Z,6.13
2022-09-15T08:34:08.283Z,7.03
2022-09-15T08:37:10.892Z,6.37
2022-09-15T08:40:18.543Z,7.85
2022-09-15T08:43:26.646Z,6.25
2022-09-15T08:46:36.104Z,4.90
2022-09-15T08:49:52.008Z,5.63
2022-09-15T08:53:01.526Z,6.33
2022-09-15T08:56:14.884Z,5.10
2022-09-15T08:59:18.784Z,7.10
2022-09-15T09:02:56.041Z,4.80
2022-09-15T09:06:01.966Z,5.03
2022-09-15T09:09:13.504Z,7.47
2022-09-15T09:12:37.085Z,4.72
2022-09-15T09:15:54.166Z,9.63
2022-09-15T09:19:32.252Z,4.00
2022-09-15T09:22:39.185Z,4.83
2022-09-15T09:25:42.814Z,4.93
2022-09-15T09:28:55.277Z,5.93
2022-09-15T09:32:00.044Z,4.30
2022-09-15T09:35:06.246Z,4.70
2022-09-15T09:38:10.406Z,7.83
2022-09-15T09:41:16.105Z,6.80
2022-09-15T09:44:20.503Z,4.60
2022-09-15T09:47:28.190Z,5.53
2022-09-15T09:50:36.525Z,4.47
2022-09-15T09:53:39.159Z,2.80
2022-09-15T09:56:41.902Z,4.20
2022-09-15T09:59:47.341Z,4.95
2022-09-15T10:02:50.328Z,3.03
2022-09-15T10:06:04.982Z,5.57
2022-09-15T10:09:14.447Z,4.13
2022-09-15T10:12:35.393Z,3.40
2022-09-15T10:15:39.254Z,4.88
2022-09-15T10:18:41.945Z,4.32
2022-09-15T10:21:44.502Z,2.42
2022-09-15T10:24:47.376Z,3.43
2022-09-15T10:28:11.843Z,4.00
2022-09-15T10:31:29.741Z,3.25
2022-09-15T10:34:33.017Z,3.63
2022-09-15T10:37:41.584Z,2.95
2022-09-15T10:40:53.008Z,2.87
2022-09-15T10:44:26.843Z,3.73
2022-09-15T10:47:43.573Z,3.85
2022-09-15T10:50:55.832Z,3.30
2022-09-15T10:54:11.653Z,2.28
2022-09-15T11:00:41.602Z,3.47
2022-09-15T11:04:08.921Z,3.33
2022-09-15T11:07:17.669Z,6.97
2022-09-15T11:10:27.004Z,3.17
2022-09-15T11:13:39.776Z,2.40
2022-09-15T11:16:56.460Z,4.10
2022-09-15T11:20:13.338Z,4.63
2022-09-15T11:23:21.461Z,3.38
2022-09-15T11:26:31.782Z,2.75
2022-09-15T11:29:53.427Z,2.90
2022-09-15T11:33:02.300Z,3.93
2022-09-15T11:36:14.504Z,2.93
2022-09-15T11:39:24.035Z,3.78
2022-09-15T11:42:34.326Z,3.15
2022-09-15T11:45:45.310Z,3.03
2022-09-15T11:48:56.371Z,2.63
2022-09-15T11:52:07.417Z,4.67
2022-09-15T11:55:19.724Z,3.67
2022-09-15T11:58:29.500Z,7.07
2022-09-15T12:01:38.366Z,3.78
2022-09-15T12:04:48.983Z,3.17
2022-09-15T12:07:59.429Z,4.00
2022-09-15T12:11:07.348Z,4.28
2022-09-15T12:14:15.344Z,3.67
2022-09-15T12:17:27.562Z,3.30
2022-09-15T12:20:36.938Z,3.40
2022-09-15T12:23:44.049Z,2.63
2022-09-15T12:26:47.573Z,3.33
2022-09-15T12:29:51.180Z,2.65
2022-09-15T12:32:57.742Z,3.60
2022-09-15T12:36:45.790Z,3.30
2022-09-15T12:39:50.188Z,2.73
2022-09-15T12:42:53.122Z,4.20
2022-09-15T12:45:58.234Z,4.10
2022-09-15T12:49:03.348Z,4.72
2022-09-15T12:52:08.472Z,2.40
2022-09-15T12:55:20.195Z,2.33
2022-09-15T12:58:30.283Z,3.25
2022-09-15T13:01:46.722Z,4.82
2022-09-15T13:04:55.419Z,4.18
2022-09-15T13:07:58.776Z,4.23
2022-09-15T13:11:05.949Z,3.33
2022-09-15T13:14:27.930Z,2.47
2022-09-15T13:17:31.847Z,4.22
2022-09-15T13:20:39.387Z,4.15
2022-09-15T13:23:45.787Z,3.47
2022-09-15T13:26:57.602Z,3.87
2022-09-15T13:30:11.193Z,4.40
2022-09-15T13:40:52.949Z,2.53
2022-09-15T13:44:25.427Z,3.63
2022-09-15T13:47:38.990Z,4.85
2022-09-15T13:50:44.126Z,2.03
2022-09-15T13:53:50.763Z,2.40
2022-09-15T13:56:53.594Z,5.17
2022-09-15T13:59:56.247Z,3.27
2022-09-15T14:03:03.244Z,3.60
2022-09-15T14:06:13.928Z,3.88
2022-09-15T14:09:19.900Z,2.65
2022-09-15T14:12:22.704Z,2.63
2022-09-15T14:15:26.875Z,3.50
2022-09-15T14:18:43.418Z,2.28
2022-09-15T14:21:49.150Z,3.33
2022-09-15T14:24:52.163Z,1.88
2022-09-15T14:27:56.544Z,1.40
2022-09-15T14:30:59.690Z,3.80
2022-09-15T14:34:06.919Z,2.97
2022-09-15T14:37:19.813Z,4.10
2022-09-15T14:40:29.082Z,2.25
2022-09-15T14:43:35.475Z,2.40
2022-09-15T14:46:38.549Z,2.80
2022-09-15T14:49:42.484Z,3.83
2022-09-15T14:52:51.343Z,2.17
2022-09-15T14:55:58.204Z,4.82
2022-09-15T14:59:05.885Z,3.53
2022-09-15T15:02:22.495Z,3.47
2022-09-15T15:05:31.580Z,2.83
2022-09-15T15:08:38.723Z,2.92
2022-09-15T15:11:43.183Z,2.63
2022-09-15T15:14:46.012Z,3.70
2022-09-15T15:17:50.952Z,2.07
2022-09-15T15:20:54.881Z,2.88
2022-09-15T15:23:57.692Z,1.23
2022-09-15T15:27:27.373Z,2.60
2022-09-15T15:30:44.704Z,4.27
2022-09-15T15:33:49.549Z,1.87
2022-09-15T15:37:03.283Z,3.00
2022-09-15T15:40:14.873Z,2.28
2022-09-15T15:43:24.150Z,3.22
2022-09-15T15:46:45.972Z,1.77
2022-09-15T15:50:11.684Z,1.47
2022-09-15T15:53:12.576Z,1.83
2022-09-15T15:56:15.181Z,1.10
2022-09-15T15:59:18.442Z,1.58
2022-09-15T16:02:21.364Z,1.93
2022-09-15T16:05:27.847Z,1.20
2022-09-15T16:08:34.261Z,1.27
2022-09-15T16:11:36.859Z,2.78
2022-09-15T16:14:39.472Z,1.70
2022-09-15T16:17:46.011Z,2.07
2022-09-15T16:20:49.884Z,1.53
2022-09-15T16:23:54.269Z,3.08
2022-09-15T16:26:56.846Z,1.70
2022-09-15T16:29:59.401Z,1.93
2022-09-15T16:33:02.247Z,2.92
2022-09-15T16:36:06.982Z,2.30
2022-09-15T16:39:11.161Z,2.78
2022-09-15T16:42:13.749Z,1.60
2022-09-15T16:45:23.859Z,1.77
2022-09-15T16:48:27.222Z,1.73
2022-09-15T16:51:31.551Z,2.97
2022-09-15T16:54:35.885Z,1.88
2022-09-15T16:57:38.431Z,2.90
2022-09-15T17:00:41.300Z,2.17
2022-09-15T17:03:44.137Z,1.67
2022-09-15T17:06:47.026Z,3.40
2022-09-15T17:09:52.861Z,1.88
2022-09-15T17:12:55.549Z,2.90
2022-09-15T17:15:59.200Z,3.20
2022-09-15T17:19:01.925Z,4.10
2022-09-15T17:22:04.683Z,3.88
2022-09-15T17:25:20.274Z,3.88
2022-09-15T17:28:25.175Z,3.77
2022-09-15T17:31:28.084Z,2.40
2022-09-15T17:34:30.923Z,3.25
2022-09-15T17:37:33.732Z,4.47
2022-09-15T17:40:38.006Z,8.23
2022-09-15T17:43:40.716Z,5.23
2022-09-15T17:46:43.335Z,6.83
2022-09-15T17:49:46.086Z,2.80
2022-09-15T17:52:49.153Z,2.72
2022-09-15T17:55:54.516Z,4.40
2022-09-15T17:58:57.239Z,2.07
2022-09-15T18:01:59.848Z,2.80
2022-09-15T18:05:02.783Z,1.98
2022-09-15T18:08:06.868Z,3.63
2022-09-15T18:11:14.957Z,5.20
2022-09-15T18:14:17.652Z,3.63
2022-09-15T18:17:20.244Z,6.17
2022-09-15T18:20:24.659Z,4.65
2022-09-15T18:23:29.707Z,3.70
2022-09-15T18:26:33.841Z,2.03
2022-09-15T18:29:36.551Z,4.27
2022-09-15T18:32:39.473Z,3.00
2022-09-15T18:35:42.526Z,5.75
2022-09-15T18:38:45.128Z,3.63
2022-09-15T18:44:57.470Z,4.73
2022-09-15T18:48:00.184Z,3.10
2022-09-15T18:51:02.787Z,2.10
2022-09-15T18:54:05.703Z,1.48
2022-09-15T18:57:09.816Z,5.68
2022-09-15T19:00:15.394Z,3.50
2022-09-15T19:03:18.422Z,2.43
2022-09-15T19:06:21.073Z,4.05
2022-09-15T19:09:23.666Z,4.47
2022-09-15T19:12:27.794Z,2.28
2022-09-15T19:15:33.783Z,3.03
2022-09-15T19:18:37.163Z,3.47
2022-09-15T19:21:39.932Z,2.67
2022-09-15T19:24:42.791Z,2.97
2022-09-15T19:27:47.999Z,2.47
2022-09-15T19:30:50.666Z,2.17
2022-09-15T19:33:53.766Z,2.77
2022-09-15T19:36:56.887Z,2.20
2022-09-15T19:39:59.722Z,2.40
2022-09-15T19:43:03.960Z,2.50
2022-09-15T19:46:12.812Z,3.75
2022-09-15T19:49:15.982Z,3.00
2022-09-15T19:52:18.676Z,2.75
2022-09-15T19:55:21.736Z,3.95
2022-09-15T19:58:26.024Z,3.30
2022-09-15T20:01:30.470Z,4.28
2022-09-15T20:04:33.641Z,3.47
2022-09-15T20:07:36.310Z,3.38
2022-09-15T20:10:40.370Z,3.97
2022-09-15T20:13:44.894Z,3.72
2022-09-15T20:16:47.644Z,4.72
2022-09-15T20:19:50.424Z,2.47
2022-09-15T20:22:54.418Z,2.60
2022-09-15T20:25:58.478Z,2.47
2022-09-15T20:29:03.875Z,2.60
2022-09-15T20:32:06.678Z,2.50
2022-09-15T20:35:10.235Z,4.07
2022-09-15T20:38:12.913Z,3.70
2022-09-15T20:41:18.102Z,4.13
2022-09-15T20:44:22.024Z,2.47
2022-09-15T20:47:24.937Z,2.78
2022-09-15T20:50:27.721Z,2.83
2022-09-15T20:53:30.447Z,3.40
2022-09-15T20:56:35.593Z,3.63
2022-09-15T20:59:39.586Z,3.35
2022-09-15T21:02:42.475Z,2.78
2022-09-15T21:05:45.469Z,3.27
2022-09-15T21:08:48.907Z,3.58
2022-09-15T21:11:53.646Z,2.67
2022-09-15T21:14:57.855Z,4.20
2022-09-15T21:18:00.508Z,3.00
2022-09-15T21:21:05.528Z,3.40
2022-09-15T21:24:09.741Z,2.75
2022-09-15T21:27:27.962Z,3.85
2022-09-15T21:30:31.935Z,3.28
2022-09-15T21:33:35.076Z,2.65
2022-09-15T21:36:37.767Z,3.13
2022-09-15T21:39:40.411Z,5.18
2022-09-15T21:42:43.143Z,3.88
2022-09-15T21:45:47.128Z,3.28
2022-09-15T21:48:50.742Z,3.00
2022-09-15T21:51:53.289Z,4.47
2022-09-15T21:54:55.991Z,4.20
2022-09-15T21:57:58.673Z,3.05
2022-09-15T22:01:10.748Z,3.47
2022-09-15T22:04:13.494Z,2.75
2022-09-15T22:07:19.326Z,3.15
2022-09-15T22:10:22.025Z,4.30
2022-09-15T22:13:24.623Z,4.33
2022-09-15T22:16:28.731Z,2.40
2022-09-15T22:19:31.479Z,3.65
2022-09-15T22:22:44.223Z,2.60
2022-09-15T22:25:46.894Z,3.60
2022-09-15T22:28:50.010Z,3.40
2022-09-15T22:31:54.080Z,2.30
2022-09-15T22:34:57.115Z,2.90
2022-09-15T22:37:59.683Z,3.53
2022-09-15T22:41:05.469Z,4.00
2022-09-15T22:44:17.677Z,2.23
2022-09-15T22:47:21.742Z,4.47
2022-09-15T22:50:24.432Z,3.08
2022-09-15T22:53:27.485Z,2.95
2022-09-15T22:56:30.820Z,3.13
2022-09-15T22:59:33.369Z,4.83
2022-09-15T23:02:37.455Z,2.63
2022-09-15T23:05:40.217Z,3.25
2022-09-15T23:08:42.823Z,2.65
2022-09-15T23:11:45.433Z,3.50
2022-09-15T23:14:48.034Z,3.57
2022-09-15T23:17:52.221Z,1.60
2022-09-15T23:20:59.021Z,6.55
2022-09-15T23:24:01.889Z,3.17
2022-09-15T23:27:05.133Z,4.25
2022-09-15T23:30:09.036Z,2.53
2022-09-15T23:33:12.956Z,2.47
2022-09-15T23:36:19.476Z,2.38
2022-09-15T23:39:22.537Z,3.28
2022-09-15T23:42:25.237Z,3.42
2022-09-15T23:45:27.787Z,3.63
2022-09-15T23:48:32.691Z,5.82
2022-09-15T23:51:35.603Z,3.05
2022-09-15T23:54:38.272Z,3.70
2022-09-15T23:57:41.003Z,2.22
